Pricesmart Inc (PSMT) Latest Bloomsberg Price


Mffais Ranking #2086 Overall / #4 Industry
Industry: Mass Merchants

Number of Companies: 115 (Ranking #1474 Overall/#8 Industry)
Inflow: $ 28,430 (K) (Ranking #1591 Overall/#8 Industry)
Outflow: $ -50,731 (K)
Mffais Flow: $ -22,301 (K) (Ranking #2086 Overall/#4 Industry)


Receive a FREE weekly executive review of stocks moving into the top 10, taking the top industy spot or moving up within their industry. Sent directly to your Inbox every Saturday. Sign up today and get last week's review immediately sent to you.

We value and respect your privacy. Please read our Terms and Conditions which states our firm commitment to your privacy. Your email address will not be shared with a third party, nor will it be sold or used for purposes other than subscription for the weekly review.

Owner CPOR Shares Action Qty Chg Invested (K) Total Current Value (K)
Genesis Asset Managers Llp 2016-09-30 168,122 New Holding 168,122 $ 13,212 $ 13,212
Kayne Anderson Rudnick Investment Management Llc 2016-09-30 1,062,146 Added More 69,136 $ 5,433 $ 83,474
Menta Capital Llc 2016-09-30 18,500 New Holding 18,500 $ 1,453 $ 1,453
Sterling Global Strategies Llc 2016-09-30 18,008 New Holding 18,008 $ 1,415 $ 1,415
Dimensional Fund Advisors Lp 2016-09-30 606,584 Added More 14,457 $ 1,136 $ 47,671
Boston Financial Mangement Llc 2016-09-30 49,645 Added More 11,008 $ 865 $ 3,901
Raymond James Associates 2016-09-30 54,347 Added More 9,285 $ 729 $ 4,271
Crawford Investment Counsel Inc 2016-09-30 26,539 Added More 9,230 $ 725 $ 2,085
Teachers Advisors Inc 2016-09-30 40,454 Added More 7,985 $ 627 $ 3,179
Hosking Partners Llp 2016-09-30 54,144 Added More 6,484 $ 509 $ 4,255
Northern Trust Corp 2016-09-30 420,146 Added More 6,208 $ 487 $ 33,019
Peak6 Investments L P 2016-09-30 4,417 New Holding 4,417 $ 347 $ 347
Wcm Investment Management Ca 2016-09-30 92,760 Added More 3,933 $ 309 $ 7,290
Scout Investments Inc 2016-09-30 3,900 New Holding 3,900 $ 306 $ 306
Sg Americas Securities Llc 2016-09-30 2,669 New Holding 2,669 $ 209 $ 209
Parametrica Management Ltd 2016-09-30 2,434 New Holding 2,434 $ 191 $ 191
Us Bancorp De 2016-09-30 12,779 Added More 1,288 $ 101 $ 1,004
Bahl Gaynor Inc 2016-09-30 19,418 Added More 1,134 $ 89 $ 1,526
Sandhill Capital Partners Llc 2016-09-30 106,525 Added More 928 $ 72 $ 8,371
Creative Planning 2016-09-30 685 Added More 400 $ 31 $ 53
Sei Investments Co 2016-09-30 2,225 Added More 377 $ 29 $ 174
California State Teachers Retirement System 2016-09-30 42,417 Added More 300 $ 23 $ 3,333
Rhumbline Advisers 2016-09-30 23,389 Added More 235 $ 18 $ 1,838
Horizon Kinetics Llc 2016-09-30 4,960 Added More 223 $ 17 $ 389
Capital One National Association 2016-09-30 6,013 Added More 212 $ 16 $ 472
Blackrock Inc 2016-09-30 21,910 Added More 199 $ 15 $ 1,721
Advisor Group Inc 2016-09-30 3,618 Added More 188 $ 14 $ 284
First Midwest Bank Trust Division 2016-09-30 8,392 Added More 94 $ 7 $ 659
Bessemer Group Inc 2016-09-30 643 Added More 88 $ 6 $ 50
Zurcher Kantonalbank Zurich Cantonalbank 2016-09-30 768 Added More 87 $ 6 $ 60
Blackrock Investment Management Llc 2016-09-30 75,001 Added More 81 $ 6 $ 5,894
Penserra Capital Management Llc 2016-09-30 200 Added More 80 $ 6 $ 15
Ftb Advisors Inc 2016-09-30 32 New Holding 32 $ 2 $ 2
American International Group Inc 2016-09-30 11,552 Added More 17 $ 1 $ 907
Assetmark Inc 2016-09-30 63 Added More 7 $ 0 $ 4
Washington Trust Bank 2016-09-30 6 New Holding 6 $ 0 $ 0
Patten Group Inc 2016-09-30 113 Added More 1 $ 0 $ 8
Robotti Robert 2016-09-30 5,598 No Change 0 $ 0 $ 439
Rbf Capital Llc 2016-09-30 2,500 No Change 0 $ 0 $ 196
Ladenburg Thalmann Financial Services Inc 2016-09-30 233 No Change 0 $ 0 $ 18
Anchor Capital Advisors Llc 2016-09-30 4,000 No Change 0 $ 0 $ 314
Bronfman E L Rothschild L P 2016-09-30 180 No Change 0 $ 0 $ 14
North Star Investment Management Corp 2016-09-30 1,831 No Change 0 $ 0 $ 143
Northwestern Mutual Wealth Management Co 2016-09-30 98 No Change 0 $ 0 $ 7
Eaton Vance Management 2016-09-30 36,212 No Change 0 $ 0 $ 2,845
Aberdeen Asset Management Plc Uk 2016-09-30 103,800 No Change 0 $ 0 $ 8,157
Nisa Investment Advisors Llc 2016-09-30 200 No Change 0 $ 0 $ 15
Wesbanco Bank Inc 2016-09-30 3,105 No Change 0 $ 0 $ 244
Reilly Financial Advisors Llc 2016-09-30 35 No Change 0 $ 0 $ 2
Teachers Retirement System Of The State Of Kentucky 2016-09-30 38,234 No Change 0 $ 0 $ 3,004
West Oak Capital Llc 2016-09-30 35 No Change 0 $ 0 $ 2
Laurel Grove Capital Llc 2016-09-30 11,378 No Change 0 $ 0 $ 894
Gam Holding Ag 2016-09-30 14,000 No Change 0 $ 0 $ 1,100
Next Financial Group Inc 2016-09-30 16 No Change 0 $ 0 $ 1
Qs Investors Llc 2016-09-30 4 No Change 0 $ 0 $ 0
Thomas J Herzfeld Advisors Inc 2016-09-30 1,000 No Change 0 $ 0 $ 78
Central Trust Co 2016-09-30 500 No Change 0 $ 0 $ 39
R H Dinel Investment Counsel Inc 2016-09-30 4,150 No Change 0 $ 0 $ 326
Finemark National Bank Trust 2016-09-30 250 No Change 0 $ 0 $ 19
Carroll Financial Associates Inc 2016-09-30 160 No Change 0 $ 0 $ 12
Advisory Services Network Llc 2016-09-30 111 No Change 0 $ 0 $ 8
Tower Research Capital Llc Trc 2016-09-30 0 Sold All -1 $ -0 $ 0
Ifp Advisors Inc 2016-09-30 1,049 Sold Some -29 $ -2 $ 82
Perigon Wealth Management Llc 2016-09-30 10,567 Sold Some -32 $ -2 $ 830
Archford Capital Strategies Llc 2016-09-30 32 Sold Some -32 $ -2 $ 2
Msi Financial Services Inc 2016-09-30 95 Sold Some -46 $ -3 $ 7
Endurance Wealth Management Inc 2016-09-30 708 Sold Some -60 $ -4 $ 55
Financial Management Professionals Inc 2016-09-30 0 Sold All -61 $ -4 $ 0
Trust Co Of Vermont 2016-09-30 0 Sold All -70 $ -5 $ 0
First Republic Investment Management Inc 2016-09-30 5,055 Sold Some -89 $ -6 $ 397
Pnc Financial Services Group Inc 2016-09-30 230 Sold Some -98 $ -7 $ 18
Loring Wolcott Coolidge Fiduciary Advisors Llp Ma 2016-09-30 160 Sold Some -100 $ -7 $ 12
Hsbc Holdings Plc 2016-09-30 4,708 Sold Some -182 $ -14 $ 370
Massmutual Trust Co Fsb Adv 2016-06-30 0 Sold All -195 $ -18 $ 0
Kcg Holdings Inc 2016-09-30 3,427 Sold Some -233 $ -18 $ 269
Freestone Capital Holdings Llc 2016-09-30 8,795 Sold Some -242 $ -19 $ 691
Peoples United Financial Inc 2016-09-30 11,392 Sold Some -256 $ -20 $ 895
M T Bank Corp 2016-09-30 9,257 Sold Some -278 $ -21 $ 727
Nationwide Fund Advisors 2016-09-30 21,580 Sold Some -303 $ -23 $ 1,695
Regions Financial Corp 2016-09-30 16,994 Sold Some -397 $ -31 $ 1,335
Acrospire Investment Management Llc 2016-09-30 100 Sold Some -400 $ -31 $ 7
Fifth Third Bancorp 2016-09-30 18,917 Sold Some -482 $ -37 $ 1,486
Parametric Portfolio Associates Llc 2016-09-30 21,483 Sold Some -513 $ -40 $ 1,688
Strs Ohio 2016-09-30 0 Sold All -700 $ -55 $ 0
Smithfield Trust Co 2016-09-30 7,833 Sold Some -782 $ -61 $ 615
Cutler Group Lp 2016-09-30 200 Sold Some -800 $ -62 $ 15
Stifel Financial Corp 2016-09-30 45,088 Sold Some -1,121 $ -88 $ 3,543
Swiss National Bank 2016-09-30 32,000 Sold Some -1,200 $ -94 $ 2,514
Ridgeworth Capital Management Llc 2016-09-30 63,944 Sold Some -1,600 $ -125 $ 5,025
Pacad Investment Ltd 2016-09-30 0 Sold All -1,900 $ -149 $ 0
Martingale Asset Management L P 2016-09-30 5,102 Sold Some -2,203 $ -173 $ 400
Princeton Alpha Management Lp 2016-09-30 0 Sold All -2,239 $ -175 $ 0
Harding Loevner Lp 2016-09-30 82,870 Sold Some -2,300 $ -180 $ 6,512
Stevens Capital Management Lp 2016-09-30 0 Sold All -2,316 $ -182 $ 0
Bokf Na 2016-09-30 0 Sold All -2,385 $ -187 $ 0
Proshare Advisors Llc 2016-09-30 0 Sold All -2,450 $ -192 $ 0
Fdx Advisors Inc 2016-09-30 0 Sold All -2,473 $ -194 $ 0
Teacher Retirement System Of Texas 2016-09-30 0 Sold All -2,736 $ -215 $ 0
Quantitative Investment Management Llc 2016-09-30 0 Sold All -4,000 $ -314 $ 0
New York State Common Retirement Fund 2016-09-30 56,880 Sold Some -4,271 $ -335 $ 4,470
Gsa Capital Partners Llp 2016-09-30 0 Sold All -4,504 $ -353 $ 0
Envestnet Asset Management Inc 2016-09-30 12,314 Sold Some -5,379 $ -422 $ 967
Pecaut Co 2016-09-30 20,940 Sold Some -5,750 $ -451 $ 1,645
Secor Capital Advisors Lp 2016-09-30 0 Sold All -5,929 $ -465 $ 0
Legal General Group Plc 2016-09-30 5,148 Sold Some -6,046 $ -475 $ 404
Walleye Trading Llc 2016-09-30 1,274 Sold Some -6,966 $ -547 $ 100
Avalon Advisors Llc 2016-09-30 0 Sold All -13,306 $ -1,045 $ 0
Landscape Capital Management L L C 2016-09-30 0 Sold All -13,472 $ -1,058 $ 0
Lyon Street Capital Llc 2016-09-30 0 Sold All -33,244 $ -2,612 $ 0
London Co Of Virginia 2016-09-30 1,972,657 Sold Some -33,402 $ -2,625 $ 155,031
Comerica Bank 2016-09-30 0 Sold All -43,517 $ -3,420 $ 0
Lombard Odier Asset Management Switzerland Sa 2016-09-30 8,300 Sold Some -68,700 $ -5,399 $ 652
Emerald Acquisition Ltd 2016-09-30 84,321 Sold Some -93,454 $ -7,344 $ 6,626
Wasatch Advisors Inc 2016-09-30 0 Sold All -119,309 $ -9,376 $ 0
Driehaus Capital Management Llc 2016-09-30 0 Sold All -152,928 $ -12,018 $ 0